sensor_id;sensor_type;location;lat;lon;timestamp;temperature;humidity
65582;DHT22;52231;40.090;18.348;2023-07-31T00:02:10;24.30;66.90
65582;DHT22;52231;40.090;18.348;2023-07-31T00:04:38;24.30;66.90
65582;DHT22;52231;40.090;18.348;2023-07-31T00:07:06;24.20;67.00
65582;DHT22;52231;40.090;18.348;2023-07-31T00:09:34;24.20;66.70
65582;DHT22;52231;40.090;18.348;2023-07-31T00:12:02;24.30;66.50
65582;DHT22;52231;40.090;18.348;2023-07-31T00:14:31;24.30;66.60
65582;DHT22;52231;40.090;18.348;2023-07-31T00:16:59;24.20;66.60
65582;DHT22;52231;40.090;18.348;2023-07-31T00:19:27;24.10;66.80
65582;DHT22;52231;40.090;18.348;2023-07-31T00:21:56;24.00;67.20
65582;DHT22;52231;40.090;18.348;2023-07-31T00:24:24;23.90;67.60
65582;DHT22;52231;40.090;18.348;2023-07-31T00:26:52;23.90;68.00
65582;DHT22;52231;40.090;18.348;2023-07-31T00:29:20;23.80;68.40
65582;DHT22;52231;40.090;18.348;2023-07-31T00:31:49;23.80;68.30
65582;DHT22;52231;40.090;18.348;2023-07-31T00:34:18;23.90;68.20
65582;DHT22;52231;40.090;18.348;2023-07-31T00:36:46;23.90;67.60
65582;DHT22;52231;40.090;18.348;2023-07-31T00:39:21;23.90;67.60
65582;DHT22;52231;40.090;18.348;2023-07-31T00:41:51;23.90;67.60
65582;DHT22;52231;40.090;18.348;2023-07-31T00:44:19;23.90;67.40
65582;DHT22;52231;40.090;18.348;2023-07-31T00:46:48;23.80;67.50
65582;DHT22;52231;40.090;18.348;2023-07-31T00:49:16;23.90;67.80
65582;DHT22;52231;40.090;18.348;2023-07-31T00:51:44;23.80;68.30
65582;DHT22;52231;40.090;18.348;2023-07-31T00:54:12;23.80;68.60
65582;DHT22;52231;40.090;18.348;2023-07-31T00:56:40;23.90;68.80
65582;DHT22;52231;40.090;18.348;2023-07-31T00:59:08;23.90;68.70
65582;DHT22;52231;40.090;18.348;2023-07-31T01:01:37;23.90;68.70
65582;DHT22;52231;40.090;18.348;2023-07-31T01:04:05;23.90;68.60
65582;DHT22;52231;40.090;18.348;2023-07-31T01:09:40;23.90;68.60
65582;DHT22;52231;40.090;18.348;2023-07-31T01:12:14;23.80;68.70
65582;DHT22;52231;40.090;18.348;2023-07-31T01:15:06;23.80;68.80
65582;DHT22;52231;40.090;18.348;2023-07-31T01:17:39;23.70;69.00
65582;DHT22;52231;40.090;18.348;2023-07-31T01:20:30;23.80;69.20
65582;DHT22;52231;40.090;18.348;2023-07-31T01:28:20;23.70;69.30
65582;DHT22;52231;40.090;18.348;2023-07-31T01:30:53;23.70;69.10
65582;DHT22;52231;40.090;18.348;2023-07-31T01:33:23;23.70;69.20
65582;DHT22;52231;40.090;18.348;2023-07-31T01:35:52;23.60;69.40
65582;DHT22;52231;40.090;18.348;2023-07-31T01:38:21;23.60;69.40
65582;DHT22;52231;40.090;18.348;2023-07-31T01:40:53;23.60;69.50
65582;DHT22;52231;40.090;18.348;2023-07-31T01:43:21;23.60;69.60
65582;DHT22;52231;40.090;18.348;2023-07-31T01:45:51;23.60;69.60
65582;DHT22;52231;40.090;18.348;2023-07-31T01:48:19;23.50;69.90
65582;DHT22;52231;40.090;18.348;2023-07-31T01:50:47;23.50;69.80
65582;DHT22;52231;40.090;18.348;2023-07-31T01:53:15;23.50;70.10
65582;DHT22;52231;40.090;18.348;2023-07-31T01:55:43;23.50;70.40
65582;DHT22;52231;40.090;18.348;2023-07-31T01:58:12;23.50;70.50
65582;DHT22;52231;40.090;18.348;2023-07-31T02:00:40;23.40;70.70
65582;DHT22;52231;40.090;18.348;2023-07-31T02:03:08;23.40;71.10
65582;DHT22;52231;40.090;18.348;2023-07-31T02:05:36;23.40;71.50
65582;DHT22;52231;40.090;18.348;2023-07-31T02:08:04;23.40;72.20
65582;DHT22;52231;40.090;18.348;2023-07-31T02:10:33;23.40;72.60
65582;DHT22;52231;40.090;18.348;2023-07-31T02:13:01;23.40;73.10
65582;DHT22;52231;40.090;18.348;2023-07-31T02:15:31;23.40;73.80
65582;DHT22;52231;40.090;18.348;2023-07-31T02:17:59;23.40;74.20
65582;DHT22;52231;40.090;18.348;2023-07-31T02:20:27;23.40;74.90
65582;DHT22;52231;40.090;18.348;2023-07-31T02:22:56;23.40;74.70
65582;DHT22;52231;40.090;18.348;2023-07-31T02:25:24;23.40;74.70
65582;DHT22;52231;40.090;18.348;2023-07-31T02:27:52;23.40;74.70
65582;DHT22;52231;40.090;18.348;2023-07-31T02:30:20;23.40;74.80
65582;DHT22;52231;40.090;18.348;2023-07-31T02:32:48;23.40;74.80
65582;DHT22;52231;40.090;18.348;2023-07-31T02:35:17;23.30;74.70
65582;DHT22;52231;40.090;18.348;2023-07-31T02:37:46;23.30;74.80
65582;DHT22;52231;40.090;18.348;2023-07-31T02:40:14;23.30;74.80
65582;DHT22;52231;40.090;18.348;2023-07-31T02:42:42;23.30;75.00
65582;DHT22;52231;40.090;18.348;2023-07-31T02:45:12;23.30;75.10
65582;DHT22;52231;40.090;18.348;2023-07-31T02:47:41;23.30;75.30
65582;DHT22;52231;40.090;18.348;2023-07-31T02:50:10;23.30;75.40
65582;DHT22;52231;40.090;18.348;2023-07-31T02:52:37;23.30;75.60
65582;DHT22;52231;40.090;18.348;2023-07-31T02:55:06;23.30;75.60
65582;DHT22;52231;40.090;18.348;2023-07-31T02:57:34;23.30;74.90
65582;DHT22;52231;40.090;18.348;2023-07-31T03:00:02;23.30;74.40
65582;DHT22;52231;40.090;18.348;2023-07-31T03:02:33;23.30;74.20
65582;DHT22;52231;40.090;18.348;2023-07-31T03:05:02;23.20;74.50
65582;DHT22;52231;40.090;18.348;2023-07-31T03:07:35;23.10;74.50
65582;DHT22;52231;40.090;18.348;2023-07-31T03:10:03;23.10;74.30
65582;DHT22;52231;40.090;18.348;2023-07-31T03:12:32;23.10;74.30
65582;DHT22;52231;40.090;18.348;2023-07-31T03:15:00;23.00;74.50
65582;DHT22;52231;40.090;18.348;2023-07-31T03:17:28;23.00;74.70
65582;DHT22;52231;40.090;18.348;2023-07-31T03:19:56;22.90;74.60
65582;DHT22;52231;40.090;18.348;2023-07-31T03:22:24;22.90;74.40
65582;DHT22;52231;40.090;18.348;2023-07-31T03:24:53;22.80;74.40
65582;DHT22;52231;40.090;18.348;2023-07-31T03:27:20;22.70;74.80
65582;DHT22;52231;40.090;18.348;2023-07-31T03:29:48;22.70;75.20
65582;DHT22;52231;40.090;18.348;2023-07-31T03:32:19;22.60;75.30
65582;DHT22;52231;40.090;18.348;2023-07-31T03:34:47;22.60;75.50
65582;DHT22;52231;40.090;18.348;2023-07-31T03:37:15;22.60;75.70
65582;DHT22;52231;40.090;18.348;2023-07-31T03:39:43;22.60;76.10
65582;DHT22;52231;40.090;18.348;2023-07-31T03:42:11;22.70;76.60
65582;DHT22;52231;40.090;18.348;2023-07-31T03:44:39;22.70;77.00
65582;DHT22;52231;40.090;18.348;2023-07-31T03:47:09;22.70;78.00
65582;DHT22;52231;40.090;18.348;2023-07-31T03:49:38;22.80;79.00
65582;DHT22;52231;40.090;18.348;2023-07-31T03:52:06;22.90;79.10
65582;DHT22;52231;40.090;18.348;2023-07-31T03:54:34;23.00;79.20
65582;DHT22;52231;40.090;18.348;2023-07-31T03:57:02;23.10;79.10
65582;DHT22;52231;40.090;18.348;2023-07-31T03:59:30;23.20;78.70
65582;DHT22;52231;40.090;18.348;2023-07-31T04:01:58;23.30;78.30
65582;DHT22;52231;40.090;18.348;2023-07-31T04:04:26;23.30;77.90
65582;DHT22;52231;40.090;18.348;2023-07-31T04:06:55;23.40;77.50
65582;DHT22;52231;40.090;18.348;2023-07-31T04:09:23;23.50;77.20
65582;DHT22;52231;40.090;18.348;2023-07-31T04:11:51;23.60;77.10
65582;DHT22;52231;40.090;18.348;2023-07-31T04:14:19;23.60;77.10
65582;DHT22;52231;40.090;18.348;2023-07-31T04:16:47;23.70;77.00
65582;DHT22;52231;40.090;18.348;2023-07-31T04:19:15;23.80;77.00
65582;DHT22;52231;40.090;18.348;2023-07-31T04:21:44;23.80;76.80
65582;DHT22;52231;40.090;18.348;2023-07-31T04:24:12;23.90;76.70
65582;DHT22;52231;40.090;18.348;2023-07-31T04:26:40;23.90;76.90
65582;DHT22;52231;40.090;18.348;2023-07-31T04:29:09;24.00;77.00
65582;DHT22;52231;40.090;18.348;2023-07-31T04:31:37;24.10;77.00
65582;DHT22;52231;40.090;18.348;2023-07-31T04:34:06;24.10;76.50
65582;DHT22;52231;40.090;18.348;2023-07-31T04:36:34;24.20;76.40
65582;DHT22;52231;40.090;18.348;2023-07-31T04:39:02;24.20;76.00
65582;DHT22;52231;40.090;18.348;2023-07-31T04:41:30;24.30;75.30
65582;DHT22;52231;40.090;18.348;2023-07-31T04:43:59;24.50;75.10
65582;DHT22;52231;40.090;18.348;2023-07-31T04:46:27;24.90;73.50
65582;DHT22;52231;40.090;18.348;2023-07-31T04:48:55;25.50;72.60
65582;DHT22;52231;40.090;18.348;2023-07-31T04:51:23;26.10;70.80
65582;DHT22;52231;40.090;18.348;2023-07-31T04:53:53;26.70;68.60
65582;DHT22;52231;40.090;18.348;2023-07-31T04:56:21;27.30;66.20
65582;DHT22;52231;40.090;18.348;2023-07-31T04:58:49;27.60;65.30
65582;DHT22;52231;40.090;18.348;2023-07-31T05:01:16;27.90;64.20
65582;DHT22;52231;40.090;18.348;2023-07-31T05:03:45;28.00;63.90
65582;DHT22;52231;40.090;18.348;2023-07-31T05:06:18;28.10;63.90
65582;DHT22;52231;40.090;18.348;2023-07-31T05:08:46;28.20;63.90
65582;DHT22;52231;40.090;18.348;2023-07-31T05:11:14;28.40;63.30
65582;DHT22;52231;40.090;18.348;2023-07-31T05:13:42;28.60;63.30
65582;DHT22;52231;40.090;18.348;2023-07-31T05:16:10;28.80;62.80
65582;DHT22;52231;40.090;18.348;2023-07-31T05:18:38;28.90;62.30
65582;DHT22;52231;40.090;18.348;2023-07-31T05:21:06;29.00;62.30
65582;DHT22;52231;40.090;18.348;2023-07-31T05:23:35;29.10;61.90
65582;DHT22;52231;40.090;18.348;2023-07-31T05:26:06;29.40;61.90
65582;DHT22;52231;40.090;18.348;2023-07-31T05:28:35;29.40;61.20
65582;DHT22;52231;40.090;18.348;2023-07-31T05:31:04;29.60;60.90
65582;DHT22;52231;40.090;18.348;2023-07-31T05:33:33;29.80;59.70
65582;DHT22;52231;40.090;18.348;2023-07-31T05:36:01;30.10;58.30
65582;DHT22;52231;40.090;18.348;2023-07-31T05:38:29;30.50;57.70
65582;DHT22;52231;40.090;18.348;2023-07-31T05:40:57;30.90;56.00
65582;DHT22;52231;40.090;18.348;2023-07-31T05:43:25;31.10;52.80
65582;DHT22;52231;40.090;18.348;2023-07-31T05:46:11;31.10;51.30
65582;DHT22;52231;40.090;18.348;2023-07-31T05:48:39;31.00;50.00
65582;DHT22;52231;40.090;18.348;2023-07-31T05:51:08;31.00;49.60
65582;DHT22;52231;40.090;18.348;2023-07-31T05:53:36;30.90;48.80
65582;DHT22;52231;40.090;18.348;2023-07-31T05:56:08;31.00;49.00
65582;DHT22;52231;40.090;18.348;2023-07-31T05:58:36;31.10;49.60
65582;DHT22;52231;40.090;18.348;2023-07-31T06:01:05;31.10;49.90
65582;DHT22;52231;40.090;18.348;2023-07-31T06:03:33;31.20;51.90
65582;DHT22;52231;40.090;18.348;2023-07-31T06:06:01;31.30;52.70
65582;DHT22;52231;40.090;18.348;2023-07-31T06:08:29;31.40;52.50
65582;DHT22;52231;40.090;18.348;2023-07-31T06:10:58;31.20;53.80
65582;DHT22;52231;40.090;18.348;2023-07-31T06:13:26;31.10;54.30
65582;DHT22;52231;40.090;18.348;2023-07-31T06:15:54;31.00;54.90
65582;DHT22;52231;40.090;18.348;2023-07-31T06:18:23;31.00;54.90
65582;DHT22;52231;40.090;18.348;2023-07-31T06:20:51;31.00;55.10
65582;DHT22;52231;40.090;18.348;2023-07-31T06:23:21;31.20;55.20
65582;DHT22;52231;40.090;18.348;2023-07-31T06:25:49;31.30;54.70
65582;DHT22;52231;40.090;18.348;2023-07-31T06:28:17;31.50;54.30
65582;DHT22;52231;40.090;18.348;2023-07-31T06:30:45;31.60;54.00
65582;DHT22;52231;40.090;18.348;2023-07-31T06:33:13;31.70;53.70
65582;DHT22;52231;40.090;18.348;2023-07-31T06:35:41;31.80;53.00
65582;DHT22;52231;40.090;18.348;2023-07-31T06:38:09;31.90;52.00
65582;DHT22;52231;40.090;18.348;2023-07-31T06:40:38;32.10;52.60
65582;DHT22;52231;40.090;18.348;2023-07-31T06:43:06;32.10;52.70
65582;DHT22;52231;40.090;18.348;2023-07-31T06:45:38;32.00;51.50
65582;DHT22;52231;40.090;18.348;2023-07-31T06:48:06;32.00;52.90
65582;DHT22;52231;40.090;18.348;2023-07-31T06:50:34;31.90;51.80
65582;DHT22;52231;40.090;18.348;2023-07-31T06:53:03;32.00;53.00
65582;DHT22;52231;40.090;18.348;2023-07-31T06:55:34;32.00;53.00
65582;DHT22;52231;40.090;18.348;2023-07-31T06:58:02;32.20;52.40
65582;DHT22;52231;40.090;18.348;2023-07-31T07:00:36;32.40;52.00
65582;DHT22;52231;40.090;18.348;2023-07-31T07:03:04;32.90;51.90
65582;DHT22;52231;40.090;18.348;2023-07-31T07:05:33;33.10;52.40
65582;DHT22;52231;40.090;18.348;2023-07-31T07:08:01;33.20;52.00
65582;DHT22;52231;40.090;18.348;2023-07-31T07:10:29;33.30;51.20
65582;DHT22;52231;40.090;18.348;2023-07-31T07:12:59;33.00;51.60
65582;DHT22;52231;40.090;18.348;2023-07-31T07:15:28;32.90;52.50
65582;DHT22;52231;40.090;18.348;2023-07-31T07:17:56;33.10;52.70
65582;DHT22;52231;40.090;18.348;2023-07-31T07:20:25;33.20;53.10
65582;DHT22;52231;40.090;18.348;2023-07-31T07:22:53;33.40;51.80
65582;DHT22;52231;40.090;18.348;2023-07-31T07:25:21;33.00;51.60
65582;DHT22;52231;40.090;18.348;2023-07-31T07:27:49;32.80;52.10
65582;DHT22;52231;40.090;18.348;2023-07-31T07:30:18;32.70;52.30
65582;DHT22;52231;40.090;18.348;2023-07-31T07:32:47;32.50;52.40
65582;DHT22;52231;40.090;18.348;2023-07-31T07:35:15;32.60;52.80
65582;DHT22;52231;40.090;18.348;2023-07-31T07:37:43;33.00;52.20
65582;DHT22;52231;40.090;18.348;2023-07-31T07:40:13;33.40;51.50
65582;DHT22;52231;40.090;18.348;2023-07-31T07:42:43;33.50;51.10
65582;DHT22;52231;40.090;18.348;2023-07-31T07:45:12;33.80;50.00
65582;DHT22;52231;40.090;18.348;2023-07-31T07:47:41;33.70;50.00
65582;DHT22;52231;40.090;18.348;2023-07-31T07:50:09;33.60;50.50
65582;DHT22;52231;40.090;18.348;2023-07-31T07:52:37;33.70;50.90
65582;DHT22;52231;40.090;18.348;2023-07-31T07:55:06;33.90;50.00
65582;DHT22;52231;40.090;18.348;2023-07-31T07:57:34;34.20;49.50
65582;DHT22;52231;40.090;18.348;2023-07-31T08:00:02;34.40;48.20
65582;DHT22;52231;40.090;18.348;2023-07-31T08:02:40;34.40;47.40
65582;DHT22;52231;40.090;18.348;2023-07-31T08:05:09;34.30;48.80
65582;DHT22;52231;40.090;18.348;2023-07-31T08:07:37;34.50;47.20
65582;DHT22;52231;40.090;18.348;2023-07-31T08:10:05;34.30;46.20
65582;DHT22;52231;40.090;18.348;2023-07-31T08:12:33;34.00;47.20
65582;DHT22;52231;40.090;18.348;2023-07-31T08:15:02;34.00;47.80
65582;DHT22;52231;40.090;18.348;2023-07-31T08:17:30;33.80;49.40
65582;DHT22;52231;40.090;18.348;2023-07-31T08:19:58;33.50;50.60
65582;DHT22;52231;40.090;18.348;2023-07-31T08:22:26;33.50;50.40
65582;DHT22;52231;40.090;18.348;2023-07-31T08:24:54;33.60;50.30
65582;DHT22;52231;40.090;18.348;2023-07-31T08:27:22;33.40;50.50
65582;DHT22;52231;40.090;18.348;2023-07-31T08:29:52;33.10;50.40
65582;DHT22;52231;40.090;18.348;2023-07-31T08:32:20;32.80;51.60
65582;DHT22;52231;40.090;18.348;2023-07-31T08:34:48;33.40;50.80
65582;DHT22;52231;40.090;18.348;2023-07-31T08:37:17;34.10;48.70
65582;DHT22;52231;40.090;18.348;2023-07-31T08:39:45;34.40;47.60
65582;DHT22;52231;40.090;18.348;2023-07-31T08:42:13;34.60;47.50
65582;DHT22;52231;40.090;18.348;2023-07-31T08:44:42;34.60;46.60
65582;DHT22;52231;40.090;18.348;2023-07-31T08:47:12;34.80;45.90
65582;DHT22;52231;40.090;18.348;2023-07-31T08:49:41;35.10;44.90
65582;DHT22;52231;40.090;18.348;2023-07-31T08:52:10;35.10;45.20
65582;DHT22;52231;40.090;18.348;2023-07-31T08:54:39;35.30;45.60
65582;DHT22;52231;40.090;18.348;2023-07-31T08:57:07;35.30;44.10
65582;DHT22;52231;40.090;18.348;2023-07-31T08:59:38;35.10;44.60
65582;DHT22;52231;40.090;18.348;2023-07-31T09:02:08;35.40;44.60
65582;DHT22;52231;40.090;18.348;2023-07-31T09:04:37;35.80;43.20
65582;DHT22;52231;40.090;18.348;2023-07-31T09:07:06;36.00;42.50
65582;DHT22;52231;40.090;18.348;2023-07-31T09:09:34;36.10;41.00
65582;DHT22;52231;40.090;18.348;2023-07-31T09:12:03;36.20;40.20
65582;DHT22;52231;40.090;18.348;2023-07-31T09:14:32;36.20;40.10
65582;DHT22;52231;40.090;18.348;2023-07-31T09:17:01;36.10;40.10
65582;DHT22;52231;40.090;18.348;2023-07-31T09:19:33;36.10;39.80
65582;DHT22;52231;40.090;18.348;2023-07-31T09:22:02;36.20;39.40
65582;DHT22;52231;40.090;18.348;2023-07-31T09:24:33;36.20;39.30
65582;DHT22;52231;40.090;18.348;2023-07-31T09:27:01;36.40;38.40
65582;DHT22;52231;40.090;18.348;2023-07-31T09:29:30;36.40;37.40
65582;DHT22;52231;40.090;18.348;2023-07-31T09:31:58;36.30;38.30
65582;DHT22;52231;40.090;18.348;2023-07-31T09:34:37;36.50;38.50
65582;DHT22;52231;40.090;18.348;2023-07-31T09:37:08;36.60;38.50
65582;DHT22;52231;40.090;18.348;2023-07-31T09:39:54;36.60;37.40
65582;DHT22;52231;40.090;18.348;2023-07-31T09:42:26;36.40;38.40
65582;DHT22;52231;40.090;18.348;2023-07-31T09:45:07;36.40;38.40
65582;DHT22;52231;40.090;18.348;2023-07-31T09:47:36;36.90;37.70
65582;DHT22;52231;40.090;18.348;2023-07-31T09:50:07;36.80;37.50
65582;DHT22;52231;40.090;18.348;2023-07-31T09:52:38;37.10;37.50
65582;DHT22;52231;40.090;18.348;2023-07-31T09:55:10;37.40;36.50
65582;DHT22;52231;40.090;18.348;2023-07-31T09:57:44;37.60;35.80
65582;DHT22;52231;40.090;18.348;2023-07-31T10:00:14;37.30;35.80
65582;DHT22;52231;40.090;18.348;2023-07-31T10:02:47;37.30;36.00
65582;DHT22;52231;40.090;18.348;2023-07-31T10:05:17;37.40;35.40
65582;DHT22;52231;40.090;18.348;2023-07-31T10:07:54;37.30;35.60
65582;DHT22;52231;40.090;18.348;2023-07-31T10:10:23;37.40;36.40
65582;DHT22;52231;40.090;18.348;2023-07-31T10:12:53;37.40;34.70
65582;DHT22;52231;40.090;18.348;2023-07-31T10:15:22;37.30;34.90
65582;DHT22;52231;40.090;18.348;2023-07-31T10:17:53;37.60;34.80
65582;DHT22;52231;40.090;18.348;2023-07-31T10:20:22;37.70;34.70
65582;DHT22;52231;40.090;18.348;2023-07-31T10:23:00;37.60;34.30
65582;DHT22;52231;40.090;18.348;2023-07-31T10:25:29;37.30;34.80
65582;DHT22;52231;40.090;18.348;2023-07-31T10:27:59;37.70;35.50
65582;DHT22;52231;40.090;18.348;2023-07-31T10:30:30;38.20;35.10
65582;DHT22;52231;40.090;18.348;2023-07-31T10:33:01;38.20;34.50
65582;DHT22;52231;40.090;18.348;2023-07-31T10:35:30;37.90;34.10
65582;DHT22;52231;40.090;18.348;2023-07-31T10:38:11;37.80;34.00
65582;DHT22;52231;40.090;18.348;2023-07-31T10:40:40;37.80;34.20
65582;DHT22;52231;40.090;18.348;2023-07-31T10:43:09;37.90;33.70
65582;DHT22;52231;40.090;18.348;2023-07-31T10:45:52;37.90;34.30
65582;DHT22;52231;40.090;18.348;2023-07-31T10:48:21;37.90;34.50
65582;DHT22;52231;40.090;18.348;2023-07-31T10:50:55;38.10;34.40
65582;DHT22;52231;40.090;18.348;2023-07-31T10:53:31;37.90;34.70
65582;DHT22;52231;40.090;18.348;2023-07-31T10:56:06;37.90;34.30
65582;DHT22;52231;40.090;18.348;2023-07-31T10:58:37;37.90;34.30
65582;DHT22;52231;40.090;18.348;2023-07-31T11:01:05;37.90;35.80
65582;DHT22;52231;40.090;18.348;2023-07-31T11:03:48;38.20;36.00
65582;DHT22;52231;40.090;18.348;2023-07-31T11:06:36;38.30;35.90
65582;DHT22;52231;40.090;18.348;2023-07-31T11:09:04;38.30;34.80
65582;DHT22;52231;40.090;18.348;2023-07-31T11:11:34;38.20;33.40
65582;DHT22;52231;40.090;18.348;2023-07-31T11:14:03;37.80;32.80
65582;DHT22;52231;40.090;18.348;2023-07-31T11:16:31;37.60;31.50
65582;DHT22;52231;40.090;18.348;2023-07-31T11:18:59;37.40;34.00
65582;DHT22;52231;40.090;18.348;2023-07-31T11:21:28;37.60;33.90
65582;DHT22;52231;40.090;18.348;2023-07-31T11:23:57;37.80;33.20
65582;DHT22;52231;40.090;18.348;2023-07-31T11:26:28;37.80;34.40
65582;DHT22;52231;40.090;18.348;2023-07-31T11:28:58;37.90;32.80
65582;DHT22;52231;40.090;18.348;2023-07-31T11:31:26;38.00;32.50
65582;DHT22;52231;40.090;18.348;2023-07-31T11:34:05;38.00;32.50
65582;DHT22;52231;40.090;18.348;2023-07-31T11:36:33;37.70;33.20
65582;DHT22;52231;40.090;18.348;2023-07-31T11:39:09;37.60;33.10
65582;DHT22;52231;40.090;18.348;2023-07-31T11:41:40;37.60;30.80
65582;DHT22;52231;40.090;18.348;2023-07-31T11:44:09;37.70;31.90
65582;DHT22;52231;40.090;18.348;2023-07-31T11:46:48;37.90;30.40
65582;DHT22;52231;40.090;18.348;2023-07-31T11:49:16;38.00;30.90
65582;DHT22;52231;40.090;18.348;2023-07-31T11:51:45;37.70;32.60
65582;DHT22;52231;40.090;18.348;2023-07-31T11:54:14;37.60;33.50
65582;DHT22;52231;40.090;18.348;2023-07-31T11:56:45;37.80;33.40
65582;DHT22;52231;40.090;18.348;2023-07-31T11:59:13;37.60;34.80
65582;DHT22;52231;40.090;18.348;2023-07-31T12:01:41;37.80;32.80
65582;DHT22;52231;40.090;18.348;2023-07-31T12:04:11;37.90;31.50
65582;DHT22;52231;40.090;18.348;2023-07-31T12:06:56;37.80;30.70
65582;DHT22;52231;40.090;18.348;2023-07-31T12:09:25;37.60;33.50
65582;DHT22;52231;40.090;18.348;2023-07-31T12:11:54;37.80;32.80
65582;DHT22;52231;40.090;18.348;2023-07-31T12:14:26;38.20;32.30
65582;DHT22;52231;40.090;18.348;2023-07-31T12:17:03;38.50;30.60
65582;DHT22;52231;40.090;18.348;2023-07-31T12:19:32;39.00;31.80
65582;DHT22;52231;40.090;18.348;2023-07-31T12:22:00;38.80;32.50
65582;DHT22;52231;40.090;18.348;2023-07-31T12:24:29;38.20;34.20
65582;DHT22;52231;40.090;18.348;2023-07-31T12:26:57;38.00;34.70
65582;DHT22;52231;40.090;18.348;2023-07-31T12:29:34;38.10;34.20
65582;DHT22;52231;40.090;18.348;2023-07-31T12:32:05;38.10;33.30
65582;DHT22;52231;40.090;18.348;2023-07-31T12:34:46;38.20;33.60
65582;DHT22;52231;40.090;18.348;2023-07-31T12:37:14;38.10;34.40
65582;DHT22;52231;40.090;18.348;2023-07-31T12:39:43;37.90;33.80
65582;DHT22;52231;40.090;18.348;2023-07-31T12:42:11;38.10;34.10
65582;DHT22;52231;40.090;18.348;2023-07-31T12:44:39;38.00;33.50
65582;DHT22;52231;40.090;18.348;2023-07-31T12:47:07;37.90;34.90
65582;DHT22;52231;40.090;18.348;2023-07-31T12:49:36;37.40;36.30
65582;DHT22;52231;40.090;18.348;2023-07-31T12:52:04;37.20;36.40
65582;DHT22;52231;40.090;18.348;2023-07-31T12:54:33;37.10;36.70
65582;DHT22;52231;40.090;18.348;2023-07-31T12:57:03;36.90;36.90
65582;DHT22;52231;40.090;18.348;2023-07-31T12:59:32;36.90;37.10
65582;DHT22;52231;40.090;18.348;2023-07-31T13:02:00;36.60;37.90
65582;DHT22;52231;40.090;18.348;2023-07-31T13:04:29;36.80;37.80
65582;DHT22;52231;40.090;18.348;2023-07-31T13:06:57;36.60;37.30
65582;DHT22;52231;40.090;18.348;2023-07-31T13:09:26;36.80;38.20
65582;DHT22;52231;40.090;18.348;2023-07-31T13:11:54;36.90;37.90
65582;DHT22;52231;40.090;18.348;2023-07-31T13:14:22;36.80;37.10
65582;DHT22;52231;40.090;18.348;2023-07-31T13:16:50;36.70;37.70
65582;DHT22;52231;40.090;18.348;2023-07-31T13:19:19;36.40;37.30
65582;DHT22;52231;40.090;18.348;2023-07-31T13:21:47;36.30;37.50
65582;DHT22;52231;40.090;18.348;2023-07-31T13:24:15;35.80;38.10
65582;DHT22;52231;40.090;18.348;2023-07-31T13:26:43;35.70;38.90
65582;DHT22;52231;40.090;18.348;2023-07-31T13:29:11;35.90;38.90
65582;DHT22;52231;40.090;18.348;2023-07-31T13:31:39;35.90;38.30
65582;DHT22;52231;40.090;18.348;2023-07-31T13:34:07;35.70;39.70
65582;DHT22;52231;40.090;18.348;2023-07-31T13:36:36;35.50;37.80
65582;DHT22;52231;40.090;18.348;2023-07-31T13:39:05;35.30;38.60
65582;DHT22;52231;40.090;18.348;2023-07-31T13:41:33;34.80;38.80
65582;DHT22;52231;40.090;18.348;2023-07-31T13:44:02;34.70;39.00
65582;DHT22;52231;40.090;18.348;2023-07-31T13:46:30;34.80;38.40
65582;DHT22;52231;40.090;18.348;2023-07-31T13:49:00;35.10;38.70
65582;DHT22;52231;40.090;18.348;2023-07-31T13:51:29;35.30;38.70
65582;DHT22;52231;40.090;18.348;2023-07-31T13:53:58;35.40;38.30
65582;DHT22;52231;40.090;18.348;2023-07-31T13:56:26;35.10;38.40
65582;DHT22;52231;40.090;18.348;2023-07-31T13:58:54;35.20;39.30
65582;DHT22;52231;40.090;18.348;2023-07-31T14:01:22;35.20;40.50
65582;DHT22;52231;40.090;18.348;2023-07-31T14:03:51;34.90;39.80
65582;DHT22;52231;40.090;18.348;2023-07-31T14:06:19;34.90;40.60
65582;DHT22;52231;40.090;18.348;2023-07-31T14:08:47;35.30;38.60
65582;DHT22;52231;40.090;18.348;2023-07-31T14:11:16;34.90;39.70
65582;DHT22;52231;40.090;18.348;2023-07-31T14:13:44;34.60;41.40
65582;DHT22;52231;40.090;18.348;2023-07-31T14:16:12;34.40;41.20
65582;DHT22;52231;40.090;18.348;2023-07-31T14:18:41;34.40;40.80
65582;DHT22;52231;40.090;18.348;2023-07-31T14:21:09;34.50;40.40
65582;DHT22;52231;40.090;18.348;2023-07-31T14:23:37;34.50;40.40
65582;DHT22;52231;40.090;18.348;2023-07-31T14:26:06;34.40;40.30
65582;DHT22;52231;40.090;18.348;2023-07-31T14:28:34;34.30;39.70
65582;DHT22;52231;40.090;18.348;2023-07-31T14:31:03;34.20;39.80
65582;DHT22;52231;40.090;18.348;2023-07-31T14:33:31;34.00;39.90
65582;DHT22;52231;40.090;18.348;2023-07-31T14:35:59;33.90;40.50
65582;DHT22;52231;40.090;18.348;2023-07-31T14:38:28;33.80;40.60
65582;DHT22;52231;40.090;18.348;2023-07-31T14:40:57;33.90;40.60
65582;DHT22;52231;40.090;18.348;2023-07-31T14:43:25;33.90;40.60
65582;DHT22;52231;40.090;18.348;2023-07-31T14:45:53;33.90;40.90
65582;DHT22;52231;40.090;18.348;2023-07-31T14:48:23;34.10;40.80
65582;DHT22;52231;40.090;18.348;2023-07-31T14:50:52;34.00;40.70
65582;DHT22;52231;40.090;18.348;2023-07-31T14:53:21;33.80;40.70
65582;DHT22;52231;40.090;18.348;2023-07-31T14:55:49;33.70;41.10
65582;DHT22;52231;40.090;18.348;2023-07-31T14:58:17;33.60;40.90
65582;DHT22;52231;40.090;18.348;2023-07-31T15:00:45;33.60;40.20
65582;DHT22;52231;40.090;18.348;2023-07-31T15:03:13;33.60;40.30
65582;DHT22;52231;40.090;18.348;2023-07-31T15:05:42;33.60;40.70
65582;DHT22;52231;40.090;18.348;2023-07-31T15:08:10;33.60;41.00
65582;DHT22;52231;40.090;18.348;2023-07-31T15:10:38;33.70;41.00
65582;DHT22;52231;40.090;18.348;2023-07-31T15:13:06;33.80;39.70
65582;DHT22;52231;40.090;18.348;2023-07-31T15:15:34;33.80;39.30
65582;DHT22;52231;40.090;18.348;2023-07-31T15:18:02;33.60;39.80
65582;DHT22;52231;40.090;18.348;2023-07-31T15:20:30;33.60;40.50
65582;DHT22;52231;40.090;18.348;2023-07-31T15:23:00;33.40;39.10
65582;DHT22;52231;40.090;18.348;2023-07-31T15:25:31;33.30;39.30
65582;DHT22;52231;40.090;18.348;2023-07-31T15:28:00;33.20;39.70
65582;DHT22;52231;40.090;18.348;2023-07-31T15:30:29;33.10;39.80
65582;DHT22;52231;40.090;18.348;2023-07-31T15:32:59;32.90;39.80
65582;DHT22;52231;40.090;18.348;2023-07-31T15:35:28;32.90;39.30
65582;DHT22;52231;40.090;18.348;2023-07-31T15:37:56;32.80;39.70